Time,TemperatureF,DewpointF,PressureIn,WindDirection,WindDirectionDegrees,WindSpeedMPH,WindSpeedGustMPH,Humidity,HourlyPrecipIn,Conditions,Clouds,dailyrainin,SoftwareType,DateUTC
2013-07-15 00:02:00,58.0,54.0,20.41,NE,54,1.0,8.0,86,0.04,,,0.00,weatherlink.com 1.10,2013-07-15 06:02:00,
2013-07-15 00:17:00,58.0,54.0,20.41,ENE,59,5.0,5.0,85,0.02,,,0.00,weatherlink.com 1.10,2013-07-15 06:17:00,
2013-07-15 00:32:00,57.9,54.0,20.41,NE,51,0.0,5.0,86,0.01,,,0.00,weatherlink.com 1.10,2013-07-15 06:32:00,
2013-07-15 00:47:00,57.6,54.0,20.42,NE,51,0.0,3.0,88,0.00,,,0.00,weatherlink.com 1.10,2013-07-15 06:47:00,
2013-07-15 01:02:00,57.3,55.0,20.41,NE,51,0.0,2.0,90,0.01,,,0.01,weatherlink.com 1.10,2013-07-15 07:02:00,
2013-07-15 01:17:00,57.3,55.0,20.42,NE,51,0.0,2.0,91,0.02,,,0.02,weatherlink.com 1.10,2013-07-15 07:17:00,
2013-07-15 01:32:00,57.1,55.0,20.41,NE,51,0.0,3.0,91,0.07,,,0.07,weatherlink.com 1.10,2013-07-15 07:32:00,
2013-07-15 01:47:00,57.0,55.0,20.41,NE,51,0.0,1.0,92,0.09,,,0.09,weatherlink.com 1.10,2013-07-15 07:47:00,
2013-07-15 02:02:00,56.8,55.0,20.42,NE,51,0.0,3.0,92,0.09,,,0.10,weatherlink.com 1.10,2013-07-15 08:02:00,
2013-07-15 02:17:00,56.8,55.0,20.42,NE,51,0.0,0.0,92,0.09,,,0.11,weatherlink.com 1.10,2013-07-15 08:17:00,
2013-07-15 02:32:00,56.9,55.0,20.43,NE,51,0.0,0.0,93,0.05,,,0.12,weatherlink.com 1.10,2013-07-15 08:32:00,
2013-07-15 02:47:00,57.0,55.0,20.42,NE,51,0.0,1.0,93,0.04,,,0.13,weatherlink.com 1.10,2013-07-15 08:47:00,
2013-07-15 03:02:00,56.9,55.0,20.41,NE,51,0.0,2.0,93,0.04,,,0.14,weatherlink.com 1.10,2013-07-15 09:02:00,
2013-07-15 03:17:00,56.7,55.0,20.40,NE,51,0.0,0.0,93,0.04,,,0.15,weatherlink.com 1.10,2013-07-15 09:17:00,
2013-07-15 03:32:00,56.5,55.0,20.40,NE,51,0.0,0.0,93,0.03,,,0.15,weatherlink.com 1.10,2013-07-15 09:32:00,
2013-07-15 03:47:00,56.2,54.0,20.40,NE,51,0.0,3.0,93,0.02,,,0.15,weatherlink.com 1.10,2013-07-15 09:47:00,
2013-07-15 04:02:00,56.0,54.0,20.39,NE,51,0.0,3.0,93,0.01,,,0.15,weatherlink.com 1.10,2013-07-15 10:02:00,
2013-07-15 04:17:00,56.0,54.0,20.39,NE,51,0.0,0.0,93,0.00,,,0.15,weatherlink.com 1.10,2013-07-15 10:17:00,
2013-07-15 04:32:00,55.9,54.0,20.39,NE,51,0.0,0.0,93,0.00,,,0.15,weatherlink.com 1.10,2013-07-15 10:32:00,
2013-07-15 04:47:00,56.1,54.0,20.39,NE,51,0.0,0.0,94,0.00,,,0.15,weatherlink.com 1.10,2013-07-15 10:47:00,
2013-07-15 05:02:00,56.2,55.0,20.39,NE,51,0.0,0.0,94,0.00,,,0.15,weatherlink.com 1.10,2013-07-15 11:02:00,
2013-07-15 05:17:00,56.2,55.0,20.39,NE,51,0.0,0.0,94,0.01,,,0.16,weatherlink.com 1.10,2013-07-15 11:17:00,
2013-07-15 05:32:00,56.2,55.0,20.39,NE,51,0.0,2.0,94,0.01,,,0.16,weatherlink.com 1.10,2013-07-15 11:32:00,
2013-07-15 05:47:00,56.4,55.0,20.40,NE,51,0.0,0.0,94,0.01,,,0.16,weatherlink.com 1.10,2013-07-15 11:47:00,
2013-07-15 06:02:00,56.3,55.0,20.40,NE,51,0.0,0.0,94,0.01,,,0.16,weatherlink.com 1.10,2013-07-15 12:02:00,
2013-07-15 06:17:00,56.3,55.0,20.40,NE,51,0.0,0.0,94,0.00,,,0.16,weatherlink.com 1.10,2013-07-15 12:17:00,
2013-07-15 06:32:00,56.3,55.0,20.40,NE,51,0.0,1.0,94,0.00,,,0.16,weatherlink.com 1.10,2013-07-15 12:32:00,
2013-07-15 06:47:00,56.3,55.0,20.40,NE,51,0.0,0.0,94,0.00,,,0.16,weatherlink.com 1.10,2013-07-15 12:47:00,
2013-07-15 07:03:00,56.8,55.0,20.40,NE,51,0.0,0.0,95,0.00,,,0.16,weatherlink.com 1.10,2013-07-15 13:03:00,
2013-07-15 07:18:00,57.3,56.0,20.40,NE,51,0.0,0.0,95,0.00,,,0.16,weatherlink.com 1.10,2013-07-15 13:18:00,
2013-07-15 07:33:00,57.6,56.0,20.40,NE,51,0.0,1.0,95,0.00,,,0.16,weatherlink.com 1.10,2013-07-15 13:33:00,
2013-07-15 07:48:00,57.7,56.0,20.41,NE,51,0.0,2.0,94,0.00,,,0.16,weatherlink.com 1.10,2013-07-15 13:48:00,
2013-07-15 08:03:00,57.9,56.0,20.41,NE,51,0.0,0.0,94,0.00,,,0.16,weatherlink.com 1.10,2013-07-15 14:03:00,
2013-07-15 08:18:00,58.3,57.0,20.40,NE,51,1.0,1.0,94,0.00,,,0.16,weatherlink.com 1.10,2013-07-15 14:18:00,
2013-07-15 08:33:00,58.7,56.0,20.40,NE,51,1.0,5.0,92,0.00,,,0.16,weatherlink.com 1.10,2013-07-15 14:33:00,
2013-07-15 08:48:00,59.0,57.0,20.41,NE,51,3.0,4.0,93,0.00,,,0.16,weatherlink.com 1.10,2013-07-15 14:48:00,
2013-07-15 09:03:00,59.0,57.0,20.41,NE,51,0.0,3.0,92,0.00,,,0.16,weatherlink.com 1.10,2013-07-15 15:03:00,
2013-07-15 09:33:00,59.7,57.0,20.41,NE,51,0.0,0.0,91,0.00,,,0.16,weatherlink.com 1.10,2013-07-15 15:33:00,
2013-07-15 09:48:00,60.4,58.0,20.41,NE,51,0.0,0.0,90,0.00,,,0.16,weatherlink.com 1.10,2013-07-15 15:48:00,
2013-07-15 10:18:00,62.9,55.0,20.41,ESE,111,2.0,11.0,76,0.00,,,0.16,weatherlink.com 1.10,2013-07-15 16:18:00,
2013-07-15 10:33:00,64.4,56.0,20.41,East,88,5.0,6.0,74,0.00,,,0.16,weatherlink.com 1.10,2013-07-15 16:33:00,
2013-07-15 10:48:00,66.1,53.0,20.41,ESE,104,5.0,10.0,64,0.00,,,0.16,weatherlink.com 1.10,2013-07-15 16:48:00,
2013-07-15 11:03:00,67.3,52.0,20.41,ESE,110,3.0,10.0,59,0.00,,,0.16,weatherlink.com 1.10,2013-07-15 17:03:00,
2013-07-15 11:18:00,68.1,53.0,20.41,East,86,8.0,15.0,59,0.00,,,0.16,weatherlink.com 1.10,2013-07-15 17:18:00,
2013-07-15 11:48:00,67.3,52.0,20.41,SE,128,4.0,10.0,58,0.00,,,0.16,weatherlink.com 1.10,2013-07-15 17:48:00,
2013-07-15 12:03:00,66.5,51.0,20.42,SE,138,6.0,13.0,58,0.00,,,0.16,weatherlink.com 1.10,2013-07-15 18:03:00,
2013-07-15 12:18:00,65.4,51.0,20.42,ESE,115,5.0,11.0,59,0.00,,,0.16,weatherlink.com 1.10,2013-07-15 18:18:00,
2013-07-15 12:33:00,65.2,50.0,20.42,ESE,121,3.0,14.0,58,0.00,,,0.16,weatherlink.com 1.10,2013-07-15 18:33:00,
2013-07-15 12:48:00,66.1,50.0,20.42,ESE,123,5.0,9.0,57,0.00,,,0.16,weatherlink.com 1.10,2013-07-15 18:48:00,
2013-07-15 13:03:00,65.0,50.0,20.42,SE,130,2.0,15.0,59,0.00,,,0.16,weatherlink.com 1.10,2013-07-15 19:03:00,
2013-07-15 13:18:00,64.0,50.0,20.42,SE,126,4.0,14.0,60,0.00,,,0.16,weatherlink.com 1.10,2013-07-15 19:18:00,
2013-07-15 13:33:00,64.7,49.0,20.42,SSE,155,4.0,10.0,57,0.00,,,0.16,weatherlink.com 1.10,2013-07-15 19:33:00,
2013-07-15 13:48:00,66.3,48.0,20.41,SE,140,5.0,6.0,53,0.00,,,0.16,weatherlink.com 1.10,2013-07-15 19:48:00,
2013-07-15 14:18:00,67.2,48.0,20.40,East,99,6.0,8.0,51,0.00,,,0.16,weatherlink.com 1.10,2013-07-15 20:18:00,
2013-07-15 14:33:00,69.2,50.0,20.40,ESE,117,0.0,10.0,51,0.00,,,0.16,weatherlink.com 1.10,2013-07-15 20:33:00,
2013-07-15 14:49:00,71.3,50.0,20.39,NNW,341,0.0,8.0,48,0.00,,,0.16,weatherlink.com 1.10,2013-07-15 20:49:00,
2013-07-15 15:04:00,69.6,53.0,20.38,WNW,298,9.0,9.0,56,0.00,,,0.16,weatherlink.com 1.10,2013-07-15 21:04:00,
2013-07-15 15:19:00,69.8,54.0,20.39,West,279,4.0,17.0,58,0.00,,,0.16,weatherlink.com 1.10,2013-07-15 21:19:00,
2013-07-15 15:49:00,69.2,55.0,20.38,NW,321,1.0,9.0,60,0.00,,,0.16,weatherlink.com 1.10,2013-07-15 21:49:00,
2013-07-15 16:04:00,69.0,54.0,20.37,WNW,302,0.0,9.0,59,0.00,,,0.16,weatherlink.com 1.10,2013-07-15 22:04:00,
2013-07-15 16:19:00,68.1,53.0,20.38,WNW,286,3.0,6.0,59,0.00,,,0.16,weatherlink.com 1.10,2013-07-15 22:19:00,
2013-07-15 16:49:00,69.4,53.0,20.37,West,277,0.0,8.0,57,0.00,,,0.16,weatherlink.com 1.10,2013-07-15 22:49:00,
2013-07-15 17:04:00,69.2,54.0,20.36,West,281,3.0,5.0,59,0.00,,,0.16,weatherlink.com 1.10,2013-07-15 23:04:00,
2013-07-15 17:34:00,66.8,54.0,20.36,West,273,4.0,10.0,63,0.00,,,0.16,weatherlink.com 1.10,2013-07-15 23:34:00,
2013-07-15 17:49:00,66.4,53.0,20.37,West,261,2.0,10.0,63,0.00,,,0.16,weatherlink.com 1.10,2013-07-15 23:49:00,
2013-07-15 18:04:00,65.8,53.0,20.37,West,268,3.0,8.0,64,0.00,,,0.16,weatherlink.com 1.10,2013-07-16 00:04:00,
2013-07-15 18:19:00,65.5,53.0,20.38,West,269,3.0,8.0,65,0.00,,,0.16,weatherlink.com 1.10,2013-07-16 00:19:00,
2013-07-15 18:34:00,64.5,53.0,20.39,West,272,9.0,9.0,67,0.00,,,0.16,weatherlink.com 1.10,2013-07-16 00:34:00,
2013-07-15 18:49:00,63.9,53.0,20.39,West,269,0.0,6.0,67,0.00,,,0.16,weatherlink.com 1.10,2013-07-16 00:49:00,
2013-07-15 19:04:00,63.2,53.0,20.39,West,269,2.0,6.0,69,0.00,,,0.16,weatherlink.com 1.10,2013-07-16 01:04:00,
2013-07-15 19:19:00,62.5,55.0,20.40,West,271,0.0,4.0,75,0.00,,,0.16,weatherlink.com 1.10,2013-07-16 01:19:00,
2013-07-15 19:51:00,60.4,55.0,20.43,West,275,0.0,5.0,81,0.01,,,0.17,weatherlink.com 1.10,2013-07-16 01:51:00,
2013-07-15 20:04:00,59.8,54.0,20.43,West,277,0.0,4.0,81,0.01,,,0.17,weatherlink.com 1.10,2013-07-16 02:04:00,
2013-07-15 20:19:00,59.4,54.0,20.44,West,277,0.0,4.0,82,0.01,,,0.17,weatherlink.com 1.10,2013-07-16 02:19:00,
2013-07-15 20:34:00,59.0,54.0,20.44,West,277,2.0,3.0,84,0.01,,,0.17,weatherlink.com 1.10,2013-07-16 02:34:00,
2013-07-15 20:49:00,58.8,55.0,20.45,West,276,1.0,3.0,86,0.00,,,0.17,weatherlink.com 1.10,2013-07-16 02:49:00,
2013-07-15 21:04:00,58.0,55.0,20.45,West,276,0.0,0.0,88,0.00,,,0.17,weatherlink.com 1.10,2013-07-16 03:04:00,
2013-07-15 21:19:00,57.4,54.0,20.45,West,276,0.0,0.0,89,0.00,,,0.17,weatherlink.com 1.10,2013-07-16 03:19:00,
2013-07-15 21:34:00,56.5,53.0,20.46,West,277,0.0,0.0,89,0.00,,,0.17,weatherlink.com 1.10,2013-07-16 03:34:00,
2013-07-15 21:49:00,55.7,53.0,20.47,West,277,0.0,3.0,90,0.00,,,0.17,weatherlink.com 1.10,2013-07-16 03:49:00,
2013-07-15 22:04:00,55.1,52.0,20.47,West,276,0.0,3.0,89,0.00,,,0.17,weatherlink.com 1.10,2013-07-16 04:04:00,
2013-07-15 22:19:00,54.6,52.0,20.48,West,277,2.0,3.0,89,0.00,,,0.17,weatherlink.com 1.10,2013-07-16 04:19:00,
2013-07-15 22:34:00,54.2,51.0,20.48,West,276,0.0,1.0,89,0.00,,,0.17,weatherlink.com 1.10,2013-07-16 04:34:00,
2013-07-15 22:49:00,54.0,50.0,20.48,West,277,0.0,3.0,87,0.00,,,0.17,weatherlink.com 1.10,2013-07-16 04:49:00,
2013-07-15 23:04:00,53.9,51.0,20.48,West,277,0.0,3.0,88,0.00,,,0.17,weatherlink.com 1.10,2013-07-16 05:04:00,
2013-07-15 23:19:00,54.0,51.0,20.48,West,277,0.0,0.0,90,0.00,,,0.17,weatherlink.com 1.10,2013-07-16 05:19:00,
2013-07-15 23:34:00,54.3,52.0,20.49,West,277,0.0,0.0,90,0.00,,,0.17,weatherlink.com 1.10,2013-07-16 05:34:00,
2013-07-15 23:49:00,54.2,51.0,20.49,West,277,0.0,1.0,89,0.00,,,0.17,weatherlink.com 1.10,2013-07-16 05:49:00,